Time;durP1;ratioP1;P1;durP2;ratioP2;P2;SDS_P1;SDS_P2;PMS_P1;PMS_P2;Temp;Humidity;BMP_temperature;BMP_pressure;BME280_temperature;BME280_humidity;BME280_pressure;Samples;Min_cycle;Max_cycle;Signal;HPM_P1;HPM_P2
2021/10/03 00:02:28;;;;;;;1.50;0.90;;;18.90;98.20;;;;;;4999451;28;21228;-75
2021/10/03 00:04:57;;;;;;;1.70;1.37;;;18.90;98.20;;;;;;4997814;28;20839;-75
2021/10/03 00:07:25;;;;;;;1.50;1.00;;;18.90;98.20;;;;;;5000941;28;20572;-76
2021/10/03 00:09:53;;;;;;;1.50;0.90;;;18.90;98.20;;;;;;4993995;28;20575;-75
2021/10/03 00:12:22;;;;;;;1.50;1.00;;;19.00;98.20;;;;;;4995932;28;20482;-76
2021/10/03 00:14:49;;;;;;;1.50;0.90;;;19.00;98.20;;;;;;4993247;28;20466;-76
2021/10/03 00:17:16;;;;;;;1.50;0.90;;;19.00;98.20;;;;;;5003813;28;20876;-75
2021/10/03 00:19:43;;;;;;;1.50;0.90;;;19.00;98.20;;;;;;4997689;28;20473;-75
2021/10/03 00:22:11;;;;;;;1.50;0.90;;;19.00;98.20;;;;;;4994368;28;20480;-77
2021/10/03 00:24:38;;;;;;;1.50;0.90;;;19.00;98.20;;;;;;4992707;28;20469;-75
2021/10/03 00:27:05;;;;;;;1.53;0.90;;;19.00;98.20;;;;;;4999730;28;20486;-78
2021/10/03 00:29:34;;;;;;;1.50;0.90;;;19.00;98.20;;;;;;4992301;28;20967;-77
2021/10/03 00:32:02;;;;;;;1.50;0.90;;;19.00;98.20;;;;;;5009072;28;20483;-76
2021/10/03 00:34:29;;;;;;;1.60;1.10;;;19.00;98.20;;;;;;4997236;28;20488;-76
2021/10/03 00:36:56;;;;;;;1.50;0.97;;;19.00;98.20;;;;;;4998355;28;20483;-76
2021/10/03 00:39:24;;;;;;;1.50;0.90;;;19.00;98.20;;;;;;4994896;28;20457;-76
2021/10/03 00:41:51;;;;;;;1.50;0.93;;;19.00;98.20;;;;;;4997969;28;21019;-74
2021/10/03 00:44:18;;;;;;;1.50;0.90;;;19.00;98.20;;;;;;5002922;28;20461;-74
2021/10/03 00:46:45;;;;;;;1.50;1.00;;;19.00;98.20;;;;;;4992609;28;20488;-79
2021/10/03 00:49:12;;;;;;;1.50;0.90;;;19.00;98.20;;;;;;4999534;28;20486;-77
2021/10/03 00:51:39;;;;;;;1.50;0.90;;;19.00;98.20;;;;;;4999404;28;21069;-75
2021/10/03 00:54:06;;;;;;;1.50;1.00;;;19.10;98.20;;;;;;5005685;28;20816;-77
2021/10/03 00:56:34;;;;;;;1.50;0.97;;;19.10;98.20;;;;;;4982951;28;20487;-76
2021/10/03 00:59:01;;;;;;;1.50;1.00;;;19.10;98.20;;;;;;5008654;28;20835;-76
2021/10/03 01:01:28;;;;;;;1.50;0.90;;;19.10;98.20;;;;;;4993016;28;20535;-77
2021/10/03 01:03:55;;;;;;;1.50;0.90;;;19.10;98.20;;;;;;5011662;28;20820;-76
2021/10/03 01:06:22;;;;;;;1.50;0.90;;;19.10;98.20;;;;;;4982861;28;20885;-74
2021/10/03 01:08:49;;;;;;;1.50;0.93;;;19.10;98.20;;;;;;5011724;28;20484;-75
2021/10/03 01:11:15;;;;;;;1.50;0.97;;;19.10;98.20;;;;;;4976236;28;20507;-75
2021/10/03 01:13:46;;;;;;;1.50;1.00;;;19.00;98.20;;;;;;5013331;28;20477;-77
2021/10/03 01:16:13;;;;;;;1.50;0.90;;;19.00;98.20;;;;;;4980334;28;20471;-77
2021/10/03 01:18:40;;;;;;;1.50;1.00;;;19.00;98.20;;;;;;5007141;28;20493;-77
2021/10/03 01:21:10;;;;;;;1.50;0.90;;;19.00;98.20;;;;;;4977643;28;20480;-76
2021/10/03 01:23:37;;;;;;;1.50;1.00;;;19.00;98.20;;;;;;5009619;28;21079;-76
2021/10/03 01:26:04;;;;;;;1.57;1.00;;;19.00;98.20;;;;;;4962307;28;20541;-76
2021/10/03 01:28:31;;;;;;;1.50;0.90;;;19.00;98.20;;;;;;5009813;28;20480;-76
2021/10/03 01:30:59;;;;;;;1.50;0.90;;;19.00;98.20;;;;;;4983154;28;20489;-77
2021/10/03 01:33:29;;;;;;;1.50;0.90;;;18.90;98.20;;;;;;5014914;28;20827;-77
2021/10/03 01:35:56;;;;;;;1.50;1.00;;;18.90;98.20;;;;;;4979857;28;20575;-77
2021/10/03 01:38:25;;;;;;;1.50;0.90;;;18.90;98.20;;;;;;5024755;28;20488;-75
2021/10/03 01:40:53;;;;;;;1.50;1.00;;;18.90;98.20;;;;;;4973840;28;20938;-80
2021/10/03 01:43:20;;;;;;;1.60;1.10;;;18.90;98.20;;;;;;5030298;28;20561;-79
2021/10/03 01:45:49;;;;;;;1.50;0.90;;;18.90;98.20;;;;;;4979976;28;20476;-76
2021/10/03 01:48:18;;;;;;;1.50;0.90;;;18.90;98.20;;;;;;5018031;28;20485;-76
2021/10/03 01:50:47;;;;;;;1.50;0.97;;;18.90;98.20;;;;;;4974735;28;20556;-78
2021/10/03 01:53:16;;;;;;;1.50;0.90;;;18.90;98.20;;;;;;4993443;28;20484;-76
2021/10/03 01:55:46;;;;;;;1.50;0.90;;;18.90;98.20;;;;;;4980442;28;20461;-77
2021/10/03 01:58:14;;;;;;;1.50;0.90;;;18.80;98.20;;;;;;4969944;28;21201;-74
2021/10/03 02:00:43;;;;;;;1.50;0.90;;;18.80;98.20;;;;;;4982967;28;20457;-75
2021/10/03 02:03:10;;;;;;;1.50;1.00;;;18.70;98.20;;;;;;5015831;28;20480;-75
2021/10/03 02:05:38;;;;;;;1.50;0.90;;;18.70;98.20;;;;;;4984900;28;20468;-75
2021/10/03 02:08:06;;;;;;;1.50;1.00;;;18.60;98.20;;;;;;5005615;28;20479;-76
2021/10/03 02:10:34;;;;;;;1.50;0.90;;;18.60;98.20;;;;;;4985262;28;20481;-75
2021/10/03 02:13:04;;;;;;;1.50;1.00;;;18.50;98.20;;;;;;5010239;28;20497;-74
2021/10/03 02:15:31;;;;;;;1.50;1.00;;;18.50;98.20;;;;;;4985834;28;20461;-75
2021/10/03 02:17:58;;;;;;;1.50;1.00;;;18.50;98.20;;;;;;5002983;28;20548;-79
2021/10/03 02:20:26;;;;;;;1.50;1.00;;;18.50;98.20;;;;;;4982349;28;20452;-77
2021/10/03 02:22:54;;;;;;;1.50;0.90;;;18.40;98.20;;;;;;5000676;28;20480;-79
2021/10/03 02:25:20;;;;;;;1.50;1.00;;;18.40;98.20;;;;;;4986605;28;20457;-78
2021/10/03 02:27:48;;;;;;;1.50;0.90;;;18.40;98.20;;;;;;5007504;28;20860;-76
2021/10/03 02:30:16;;;;;;;1.50;1.00;;;18.40;98.20;;;;;;4989074;28;21029;-77
2021/10/03 02:32:43;;;;;;;1.50;0.90;;;18.40;98.20;;;;;;5001360;28;20567;-77
2021/10/03 02:35:11;;;;;;;1.50;0.90;;;18.40;98.20;;;;;;4987272;28;20460;-77
2021/10/03 02:37:38;;;;;;;1.50;0.90;;;18.40;98.20;;;;;;5005769;28;20482;-75
2021/10/03 02:40:08;;;;;;;1.70;1.10;;;18.40;98.20;;;;;;4981917;28;20458;-78
2021/10/03 02:42:36;;;;;;;1.50;1.00;;;18.40;98.20;;;;;;5005867;28;21078;-75
2021/10/03 02:45:04;;;;;;;1.80;1.13;;;18.40;98.20;;;;;;4990208;28;21167;-75
2021/10/03 02:47:32;;;;;;;1.50;1.00;;;18.40;98.20;;;;;;4999050;28;20875;-79
2021/10/03 02:49:59;;;;;;;1.50;0.90;;;18.40;98.20;;;;;;4983531;28;20490;-76
2021/10/03 02:52:26;;;;;;;1.50;1.00;;;18.40;98.20;;;;;;5012317;28;20475;-74
2021/10/03 02:54:53;;;;;;;1.50;0.90;;;18.40;98.20;;;;;;4983409;28;20532;-76
2021/10/03 02:57:20;;;;;;;1.50;0.90;;;18.40;98.20;;;;;;4997075;28;20502;-75
2021/10/03 02:59:46;;;;;;;1.50;0.90;;;18.30;98.20;;;;;;4989814;28;20473;-77
2021/10/03 03:02:13;;;;;;;1.50;0.90;;;18.30;98.20;;;;;;5006855;28;20497;-74
2021/10/03 03:04:41;;;;;;;1.50;1.00;;;18.30;98.20;;;;;;4990849;28;20466;-74
2021/10/03 03:07:08;;;;;;;1.50;1.00;;;18.30;98.20;;;;;;4994330;28;21020;-75
2021/10/03 03:09:35;;;;;;;1.50;1.00;;;18.30;98.20;;;;;;4986171;28;20592;-74
2021/10/03 03:12:02;;;;;;;1.50;0.90;;;18.30;98.20;;;;;;4993701;28;20479;-77
2021/10/03 03:14:29;;;;;;;1.50;0.90;;;18.30;98.20;;;;;;4999036;28;20468;-76
2021/10/03 03:16:55;;;;;;;1.50;0.90;;;18.30;98.20;;;;;;4983691;28;20487;-77
2021/10/03 03:19:22;;;;;;;1.50;1.00;;;18.30;98.20;;;;;;4994310;28;20453;-78
2021/10/03 03:21:50;;;;;;;1.50;0.93;;;18.30;98.20;;;;;;4989900;28;20483;-77
2021/10/03 03:24:17;;;;;;;1.50;1.10;;;18.40;98.20;;;;;;5004632;28;20465;-75
2021/10/03 03:26:44;;;;;;;1.50;0.90;;;18.40;98.20;;;;;;4983183;28;20480;-75
2021/10/03 03:29:11;;;;;;;1.50;0.90;;;18.40;98.20;;;;;;5004168;28;20456;-77
2021/10/03 03:31:37;;;;;;;1.50;0.90;;;18.40;98.20;;;;;;4985154;28;20481;-75
2021/10/03 03:34:04;;;;;;;1.50;1.00;;;18.40;98.20;;;;;;5001193;28;20575;-76
2021/10/03 03:36:31;;;;;;;1.50;0.93;;;18.40;98.20;;;;;;4981187;28;20479;-76
2021/10/03 03:38:59;;;;;;;1.50;0.90;;;18.40;98.20;;;;;;5004684;28;20497;-76
2021/10/03 03:41:25;;;;;;;1.50;1.00;;;18.40;98.20;;;;;;4974579;28;21024;-76
2021/10/03 03:43:52;;;;;;;1.50;0.90;;;18.40;98.20;;;;;;5005584;28;20477;-76
2021/10/03 03:46:19;;;;;;;1.50;1.00;;;18.40;98.20;;;;;;4982813;28;20521;-77
2021/10/03 03:48:46;;;;;;;1.50;0.90;;;18.40;98.20;;;;;;5006930;28;20466;-76
2021/10/03 03:51:12;;;;;;;1.50;1.00;;;18.40;98.20;;;;;;4971737;28;20486;-76
2021/10/03 03:53:39;;;;;;;1.50;0.97;;;18.40;98.20;;;;;;5010236;28;20953;-78
2021/10/03 03:56:08;;;;;;;1.50;0.90;;;18.40;98.20;;;;;;4975524;28;20491;-77
2021/10/03 03:58:35;;;;;;;1.50;0.97;;;18.40;98.20;;;;;;5008768;28;20589;-74
2021/10/03 04:01:02;;;;;;;1.50;0.90;;;18.50;98.20;;;;;;4974849;28;20481;-75
2021/10/03 04:03:29;;;;;;;1.50;1.00;;;18.50;98.10;;;;;;5005279;28;20472;-77
2021/10/03 04:05:56;;;;;;;1.50;1.00;;;18.50;97.90;;;;;;4975782;28;20469;-75
2021/10/03 04:08:23;;;;;;;1.50;1.00;;;18.60;98.00;;;;;;5014292;28;20491;-75
2021/10/03 04:10:51;;;;;;;1.50;0.90;;;18.60;97.90;;;;;;4974275;28;20561;-74
2021/10/03 04:13:19;;;;;;;1.50;1.00;;;18.60;97.70;;;;;;5015938;28;20460;-74
2021/10/03 04:15:46;;;;;;;1.50;0.93;;;18.60;97.50;;;;;;4979995;28;20473;-75
2021/10/03 04:18:13;;;;;;;1.50;1.00;;;18.70;97.00;;;;;;5010007;28;20488;-74
2021/10/03 04:20:40;;;;;;;1.50;0.93;;;18.70;97.00;;;;;;4990288;28;20461;-75
2021/10/03 04:23:08;;;;;;;1.50;0.90;;;18.70;96.70;;;;;;5004673;28;20477;-74
2021/10/03 04:25:35;;;;;;;1.50;0.90;;;18.80;96.50;;;;;;4981566;28;20465;-75
2021/10/03 04:28:02;;;;;;;1.50;0.90;;;18.80;96.40;;;;;;5003464;28;20847;-75
2021/10/03 04:30:30;;;;;;;1.50;1.00;;;18.80;96.20;;;;;;4988112;28;20548;-75
2021/10/03 04:32:57;;;;;;;1.50;0.90;;;18.80;95.90;;;;;;5018736;28;20484;-75
2021/10/03 04:35:24;;;;;;;1.50;0.90;;;18.90;95.90;;;;;;4985782;28;20941;-75
2021/10/03 04:37:51;;;;;;;1.50;0.90;;;18.90;95.90;;;;;;5006100;28;20506;-76
2021/10/03 04:40:18;;;;;;;1.50;0.90;;;18.90;95.50;;;;;;4982993;28;20475;-75
2021/10/03 04:42:47;;;;;;;1.50;0.90;;;19.00;95.40;;;;;;5013867;28;20488;-74
2021/10/03 04:45:14;;;;;;;1.50;0.90;;;19.00;95.10;;;;;;4984631;28;20933;-76
2021/10/03 04:47:42;;;;;;;1.50;0.90;;;19.10;95.00;;;;;;5007504;28;20487;-76
2021/10/03 04:50:10;;;;;;;2.00;1.77;;;19.10;94.90;;;;;;4983566;28;20476;-75
2021/10/03 04:52:39;;;;;;;1.60;1.20;;;19.10;94.50;;;;;;5003860;28;20487;-75
2021/10/03 04:55:08;;;;;;;1.50;0.90;;;19.20;94.50;;;;;;4991849;28;21017;-76
2021/10/03 04:57:34;;;;;;;1.50;1.00;;;19.20;94.60;;;;;;5007384;28;20483;-76
2021/10/03 05:00:01;;;;;;;1.50;0.90;;;19.20;94.70;;;;;;4989784;28;20478;-77
2021/10/03 05:02:28;;;;;;;1.50;0.90;;;19.20;94.60;;;;;;5001910;28;20485;-76
2021/10/03 05:04:56;;;;;;;1.50;0.90;;;19.20;94.60;;;;;;4987569;28;20470;-79
2021/10/03 05:07:23;;;;;;;1.50;0.90;;;19.30;94.60;;;;;;4994009;28;20502;-74
2021/10/03 05:09:50;;;;;;;1.50;0.90;;;19.30;94.60;;;;;;4990751;28;20471;-76
2021/10/03 05:12:16;;;;;;;1.50;0.90;;;19.30;94.70;;;;;;4990205;28;20862;-74
2021/10/03 05:14:43;;;;;;;1.50;0.90;;;19.30;94.70;;;;;;4992788;28;20469;-74
2021/10/03 05:17:10;;;;;;;1.50;0.90;;;19.30;94.60;;;;;;4998323;28;20494;-76
2021/10/03 05:19:37;;;;;;;1.50;0.90;;;19.30;94.60;;;;;;4997394;28;20520;-77
2021/10/03 05:22:05;;;;;;;1.50;1.00;;;19.30;94.60;;;;;;4996843;28;20486;-77
2021/10/03 05:24:32;;;;;;;1.50;0.97;;;19.40;94.60;;;;;;4996829;28;20551;-77
2021/10/03 05:27:00;;;;;;;1.50;0.90;;;19.40;94.60;;;;;;4991929;28;20541;-77
2021/10/03 05:29:27;;;;;;;1.50;1.00;;;19.40;94.70;;;;;;4999084;28;20461;-78
2021/10/03 05:31:54;;;;;;;1.50;0.93;;;19.40;94.70;;;;;;4990200;28;20487;-75
2021/10/03 05:34:21;;;;;;;1.50;1.00;;;19.40;94.70;;;;;;5003997;28;20941;-75
2021/10/03 05:36:47;;;;;;;2.23;2.00;;;19.40;94.80;;;;;;4987686;28;21049;-75
2021/10/03 05:39:16;;;;;;;1.50;0.90;;;19.50;94.80;;;;;;5009557;28;20493;-74
2021/10/03 05:41:42;;;;;;;1.50;0.90;;;19.50;94.80;;;;;;4981312;28;20868;-75
2021/10/03 05:44:09;;;;;;;1.50;0.90;;;19.50;94.90;;;;;;5006707;28;20478;-76
2021/10/03 05:46:36;;;;;;;1.50;0.90;;;19.50;94.60;;;;;;4976911;28;20491;-75
2021/10/03 05:49:03;;;;;;;1.50;0.90;;;19.50;94.80;;;;;;5005183;28;20468;-75
2021/10/03 05:51:35;;;;;;;1.50;0.97;;;19.50;95.10;;;;;;4989118;28;20594;-76
2021/10/03 05:54:02;;;;;;;1.50;1.00;;;19.50;95.20;;;;;;5007382;28;20477;-76
2021/10/03 05:56:31;;;;;;;1.50;0.90;;;19.50;95.00;;;;;;4988041;28;20530;-76
2021/10/03 05:58:58;;;;;;;1.50;0.90;;;19.50;95.30;;;;;;5008629;28;20555;-76
2021/10/03 06:01:28;;;;;;;1.50;0.90;;;19.60;95.00;;;;;;4979101;28;20471;-75
2021/10/03 06:03:55;;;;;;;1.50;1.00;;;19.60;95.30;;;;;;5006168;28;20980;-74
2021/10/03 06:06:21;;;;;;;1.50;1.00;;;19.60;95.80;;;;;;4985438;28;20681;-74
2021/10/03 06:08:48;;;;;;;1.70;1.20;;;19.50;95.90;;;;;;5009980;28;20464;-75
2021/10/03 06:11:15;;;;;;;1.50;0.90;;;19.50;95.90;;;;;;4976858;28;20661;-74
2021/10/03 06:13:43;;;;;;;1.50;0.90;;;19.50;96.10;;;;;;5004306;28;20465;-74
2021/10/03 06:16:10;;;;;;;1.50;1.00;;;19.50;95.90;;;;;;4979650;28;20483;-74
2021/10/03 06:18:37;;;;;;;1.50;0.90;;;19.40;96.10;;;;;;5011325;28;20495;-74
2021/10/03 06:21:04;;;;;;;1.50;0.90;;;19.50;95.80;;;;;;4977185;28;20466;-74
2021/10/03 06:23:31;;;;;;;1.50;0.90;;;19.40;95.80;;;;;;5015512;28;20465;-74
2021/10/03 06:25:58;;;;;;;1.50;0.90;;;19.40;96.00;;;;;;4979715;28;20952;-73
2021/10/03 06:28:25;;;;;;;1.50;0.90;;;19.50;96.20;;;;;;5018527;28;20484;-74
2021/10/03 06:30:53;;;;;;;1.50;0.90;;;19.50;95.80;;;;;;4968491;28;20462;-73
2021/10/03 06:33:20;;;;;;;1.50;1.00;;;19.50;96.20;;;;;;5016915;28;20468;-74
2021/10/03 06:35:46;;;;;;;1.50;0.90;;;19.40;96.60;;;;;;4978490;28;20549;-74
2021/10/03 06:38:13;;;;;;;1.50;1.00;;;19.40;96.80;;;;;;5001434;28;20498;-74
2021/10/03 06:40:42;;;;;;;1.50;0.90;;;19.40;96.60;;;;;;4977528;28;20460;-74
2021/10/03 06:43:08;;;;;;;1.50;1.00;;;19.40;96.60;;;;;;5001980;28;20492;-73
2021/10/03 06:45:35;;;;;;;1.50;1.00;;;19.40;96.80;;;;;;4981716;28;20469;-73
2021/10/03 06:48:04;;;;;;;1.50;0.90;;;19.40;97.10;;;;;;5001746;28;20490;-73
2021/10/03 06:50:32;;;;;;;1.50;1.00;;;19.40;97.60;;;;;;4979396;28;20480;-74
2021/10/03 06:52:58;;;;;;;1.50;0.90;;;19.40;97.50;;;;;;4999881;28;21705;-74
2021/10/03 06:55:25;;;;;;;1.50;0.97;;;19.40;97.40;;;;;;4983560;28;20465;-74
2021/10/03 06:57:52;;;;;;;1.50;0.90;;;19.30;98.00;;;;;;4996805;28;21085;-74
2021/10/03 07:00:20;;;;;;;1.50;0.90;;;19.30;97.70;;;;;;4979119;28;20477;-74
2021/10/03 07:02:47;;;;;;;1.50;0.90;;;19.30;98.00;;;;;;4986049;28;20958;-74
2021/10/03 07:05:15;;;;;;;1.50;1.00;;;19.30;97.90;;;;;;4978707;28;20467;-77
2021/10/03 07:07:42;;;;;;;1.50;0.90;;;19.30;98.20;;;;;;5002071;28;20536;-79
2021/10/03 07:10:09;;;;;;;1.50;1.00;;;19.30;98.20;;;;;;4978292;28;20474;-79
2021/10/03 07:12:36;;;;;;;1.50;0.90;;;19.30;98.20;;;;;;4995552;28;20475;-77
2021/10/03 07:15:03;;;;;;;1.50;0.90;;;19.20;98.20;;;;;;4984055;28;20835;-77
2021/10/03 07:17:30;;;;;;;1.50;1.00;;;19.20;98.20;;;;;;4987157;28;20561;-78
2021/10/03 07:19:56;;;;;;;1.50;0.90;;;19.20;98.20;;;;;;4973854;28;20509;-79
2021/10/03 07:22:24;;;;;;;1.50;0.90;;;19.10;98.20;;;;;;4986924;28;20953;-77
2021/10/03 07:24:51;;;;;;;1.50;1.00;;;19.10;98.20;;;;;;4982694;28;20489;-74
2021/10/03 07:27:18;;;;;;;1.50;0.90;;;19.10;98.20;;;;;;4993831;28;20488;-74
2021/10/03 07:29:48;;;;;;;1.53;1.00;;;19.10;98.20;;;;;;4983589;28;20474;-75
2021/10/03 07:32:16;;;;;;;1.50;0.90;;;19.00;98.20;;;;;;4996821;28;21007;-74
2021/10/03 07:34:44;;;;;;;1.50;0.93;;;19.00;98.20;;;;;;4978082;28;20473;-77
2021/10/03 07:37:11;;;;;;;1.50;0.90;;;19.00;98.20;;;;;;4991386;28;21005;-76
2021/10/03 07:39:41;;;;;;;1.50;1.00;;;19.00;98.20;;;;;;4986858;28;20468;-76
2021/10/03 07:42:08;;;;;;;1.50;0.97;;;18.90;98.20;;;;;;4992295;28;20537;-74
2021/10/03 07:44:35;;;;;;;1.50;1.00;;;18.90;98.20;;;;;;4980995;28;20473;-75
2021/10/03 07:47:02;;;;;;;1.50;1.00;;;18.90;98.20;;;;;;4991733;28;20494;-77
2021/10/03 07:49:29;;;;;;;1.50;0.90;;;18.80;98.20;;;;;;4986249;28;20572;-76
2021/10/03 07:51:56;;;;;;;1.50;0.90;;;18.80;98.20;;;;;;4984400;28;20569;-78
2021/10/03 07:54:23;;;;;;;1.50;0.93;;;18.80;98.20;;;;;;4994751;28;20467;-77
2021/10/03 07:56:52;;;;;;;1.50;1.00;;;18.80;98.20;;;;;;4987503;28;20492;-78
2021/10/03 07:59:19;;;;;;;1.50;0.90;;;18.80;98.20;;;;;;4991438;28;20468;-77
2021/10/03 08:01:46;;;;;;;1.50;0.90;;;18.70;98.20;;;;;;4976078;28;20591;-77
2021/10/03 08:04:13;;;;;;;1.50;1.00;;;18.80;98.20;;;;;;4993430;28;20999;-78
2021/10/03 08:06:40;;;;;;;1.50;0.90;;;18.70;98.20;;;;;;4982155;28;21050;-77
2021/10/03 08:09:07;;;;;;;1.50;0.90;;;18.80;98.20;;;;;;4998155;28;20472;-77
2021/10/03 08:11:33;;;;;;;1.50;0.90;;;18.80;98.20;;;;;;4987190;28;20494;-77
2021/10/03 08:14:02;;;;;;;1.50;0.90;;;18.80;98.20;;;;;;5004061;28;20868;-76
2021/10/03 08:16:28;;;;;;;1.50;0.90;;;18.80;98.20;;;;;;4970663;28;20492;-77
2021/10/03 08:18:57;;;;;;;1.50;0.90;;;18.80;98.20;;;;;;5007273;28;20470;-77
2021/10/03 08:21:24;;;;;;;1.50;0.90;;;18.80;98.20;;;;;;4972815;28;20478;-79
2021/10/03 08:23:51;;;;;;;1.50;0.90;;;18.80;98.20;;;;;;5002730;28;20476;-80
2021/10/03 08:26:18;;;;;;;1.50;1.00;;;18.80;98.20;;;;;;4983376;28;21350;-78
2021/10/03 08:28:45;;;;;;;1.50;0.90;;;18.80;98.20;;;;;;5010454;28;20798;-79
2021/10/03 08:31:13;;;;;;;1.50;0.90;;;18.80;98.20;;;;;;4969164;28;20471;-76
2021/10/03 08:33:40;;;;;;;1.50;0.90;;;18.80;98.20;;;;;;5005334;28;20507;-77
2021/10/03 08:36:07;;;;;;;1.50;0.90;;;18.80;98.20;;;;;;4975558;28;20762;-77
2021/10/03 08:38:34;;;;;;;1.50;1.00;;;18.80;98.20;;;;;;5007166;28;20867;-76
2021/10/03 08:41:02;;;;;;;1.50;1.00;;;18.80;98.20;;;;;;4976572;28;20551;-75
2021/10/03 08:43:29;;;;;;;1.50;0.90;;;18.80;98.20;;;;;;4997703;28;20986;-76
2021/10/03 08:45:57;;;;;;;1.50;0.90;;;18.80;98.20;;;;;;4972015;28;20477;-77
2021/10/03 08:48:26;;;;;;;1.50;1.00;;;18.80;98.20;;;;;;5006181;28;20529;-76
2021/10/03 08:50:53;;;;;;;1.50;0.90;;;18.80;98.20;;;;;;4973104;28;20467;-78
2021/10/03 08:53:20;;;;;;;1.70;1.30;;;18.80;98.20;;;;;;5009414;28;20486;-78
2021/10/03 08:55:47;;;;;;;1.50;1.20;;;18.80;98.20;;;;;;4970881;28;20469;-79
2021/10/03 08:58:14;;;;;;;1.50;1.00;;;18.80;98.20;;;;;;5009321;28;21005;-78
2021/10/03 09:00:48;;;;;;;1.50;0.90;;;18.80;98.20;;;;;;4975722;28;20985;-79
2021/10/03 09:03:17;;;;;;;1.50;0.90;;;18.80;98.20;;;;;;4962202;28;20486;-76
2021/10/03 09:05:49;;;;;;;1.50;0.97;;;18.80;98.20;;;;;;4974431;28;20576;-76
2021/10/03 09:08:18;;;;;;;1.50;0.90;;;18.80;98.20;;;;;;4977217;28;20492;-73
2021/10/03 09:10:53;;;;;;;1.50;1.00;;;18.80;98.20;;;;;;4979649;28;20973;-75
2021/10/03 09:13:23;;;;;;;1.50;0.90;;;18.90;98.20;;;;;;4981191;28;20497;-77
2021/10/03 09:16:06;;;;;;;1.50;1.00;;;18.90;98.20;;;;;;4969064;28;20466;-77
2021/10/03 09:18:42;;;;;;;1.50;0.93;;;18.90;98.20;;;;;;4975352;28;20609;-77
2021/10/03 09:21:13;;;;;;;1.50;1.00;;;19.00;98.20;;;;;;4975443;28;20484;-77
2021/10/03 09:23:40;;;;;;;1.50;1.00;;;19.00;98.20;;;;;;4979419;28;20977;-76
2021/10/03 09:26:14;;;;;;;1.50;0.90;;;19.10;98.20;;;;;;4973398;28;20673;-74
2021/10/03 09:28:41;;;;;;;1.50;0.97;;;19.10;98.20;;;;;;5001936;28;20581;-75
2021/10/03 09:31:10;;;;;;;1.63;1.53;;;19.10;98.20;;;;;;4972061;28;20514;-77
2021/10/03 09:33:49;;;;;;;1.50;1.00;;;19.20;98.20;;;;;;5002186;28;20588;-76
2021/10/03 09:36:19;;;;;;;1.50;1.00;;;19.20;98.20;;;;;;4975690;28;20482;-75
2021/10/03 09:38:49;;;;;;;1.50;1.00;;;19.30;98.20;;;;;;4996089;28;20859;-80
2021/10/03 09:41:20;;;;;;;1.50;0.97;;;19.30;98.20;;;;;;4977114;28;20487;-81
2021/10/03 09:43:48;;;;;;;1.50;0.97;;;19.30;98.20;;;;;;4999145;28;20470;-77
2021/10/03 09:46:40;;;;;;;1.50;0.90;;;19.40;98.20;;;;;;4973746;28;20523;-76
2021/10/03 09:49:08;;;;;;;1.50;0.90;;;19.40;98.20;;;;;;4988021;28;20464;-76
2021/10/03 09:51:37;;;;;;;1.53;1.00;;;19.40;98.20;;;;;;4977350;28;20483;-76
2021/10/03 09:54:05;;;;;;;1.50;0.90;;;19.50;98.20;;;;;;4998255;28;20967;-78
2021/10/03 09:56:33;;;;;;;1.50;0.90;;;19.50;98.20;;;;;;4979184;28;20479;-76
2021/10/03 09:59:01;;;;;;;1.50;0.90;;;19.60;98.20;;;;;;4995945;28;20908;-77
2021/10/03 10:01:31;;;;;;;1.50;0.97;;;19.60;98.20;;;;;;4973743;28;21092;-80
2021/10/03 10:03:58;;;;;;;1.50;0.90;;;19.60;98.20;;;;;;4999913;28;20462;-79
2021/10/03 10:06:25;;;;;;;1.50;0.90;;;19.70;98.20;;;;;;4974460;28;20717;-79
2021/10/03 10:08:56;;;;;;;1.50;0.90;;;19.70;98.20;;;;;;4998968;28;20557;-77
2021/10/03 10:11:33;;;;;;;1.50;1.00;;;19.70;98.20;;;;;;4979083;28;20492;-76
2021/10/03 10:14:03;;;;;;;1.50;0.90;;;19.70;98.20;;;;;;5002167;28;20847;-77
2021/10/03 10:16:33;;;;;;;1.50;0.90;;;19.70;98.20;;;;;;4977291;28;21029;-76
2021/10/03 10:19:29;;;;;;;2.23;2.03;;;19.70;98.20;;;;;;4998124;28;20596;-78
2021/10/03 10:22:38;;;;;;;1.50;0.90;;;19.70;98.20;;;;;;4982210;28;20558;-76
2021/10/03 10:25:19;;;;;;;1.50;0.90;;;19.70;98.20;;;;;;4975903;28;20493;-76
2021/10/03 10:28:09;;;;;;;1.50;0.90;;;19.70;98.20;;;;;;4996342;28;20495;-79
2021/10/03 10:30:57;;;;;;;1.50;0.90;;;19.80;98.20;;;;;;4973449;28;20858;-74
2021/10/03 10:33:25;;;;;;;1.50;0.90;;;19.80;98.20;;;;;;4959774;28;20493;-75
2021/10/03 10:36:15;;;;;;;1.50;0.90;;;19.80;98.20;;;;;;4971310;28;20531;-75
2021/10/03 10:38:42;;;;;;;1.50;0.90;;;19.80;98.20;;;;;;4998609;28;20490;-75
2021/10/03 10:44:34;;;;;;;1.50;0.90;;;19.90;98.20;;;;;;5113284;27;20606;-77
2021/10/03 10:47:02;;;;;;;1.50;1.00;;;19.90;98.20;;;;;;5072719;27;20475;-76
2021/10/03 10:49:38;;;;;;;1.50;0.90;;;19.90;98.20;;;;;;5050733;28;20585;-76
2021/10/03 10:52:25;;;;;;;1.50;0.90;;;19.90;98.20;;;;;;5054702;28;20886;-75
2021/10/03 10:55:24;;;;;;;1.50;0.90;;;19.90;98.20;;;;;;5058161;28;20739;-76
2021/10/03 10:58:15;;;;;;;1.50;0.97;;;19.90;98.20;;;;;;5057377;28;20514;-76
2021/10/03 11:01:17;;;;;;;1.50;0.90;;;20.00;98.20;;;;;;5044910;28;20466;-76
2021/10/03 11:04:04;;;;;;;1.50;0.90;;;20.00;98.20;;;;;;5040934;28;20486;-75
2021/10/03 11:07:05;;;;;;;1.50;0.97;;;20.00;98.20;;;;;;5035867;28;20477;-75
2021/10/03 11:10:01;;;;;;;1.50;0.90;;;20.10;98.20;;;;;;5063714;28;20623;-76
2021/10/03 11:12:33;;;;;;;1.50;1.00;;;20.10;98.20;;;;;;5053320;28;20506;-80
2021/10/03 11:15:28;;;;;;;1.50;0.90;;;20.10;98.20;;;;;;5052709;28;20677;-79
2021/10/03 11:18:04;;;;;;;1.50;0.90;;;20.20;98.20;;;;;;5056441;28;20485;-78
2021/10/03 11:20:31;;;;;;;1.50;0.90;;;20.20;98.20;;;;;;5051138;28;20469;-76
2021/10/03 11:22:58;;;;;;;1.50;0.90;;;20.30;98.20;;;;;;5059529;28;20482;-74
2021/10/03 11:25:28;;;;;;;1.50;0.97;;;20.30;98.20;;;;;;5054360;28;20469;-75
2021/10/03 11:27:55;;;;;;;1.50;1.00;;;20.30;98.20;;;;;;5064496;28;20489;-76
2021/10/03 11:30:22;;;;;;;1.50;0.90;;;20.30;98.20;;;;;;5050090;28;20477;-76
2021/10/03 11:32:49;;;;;;;1.70;1.40;;;20.30;98.20;;;;;;5059948;28;20500;-77
2021/10/03 11:35:19;;;;;;;1.50;0.90;;;20.30;98.20;;;;;;5058249;28;20483;-76
2021/10/03 11:37:49;;;;;;;1.50;1.00;;;20.30;98.20;;;;;;5061260;28;20483;-79
2021/10/03 11:40:18;;;;;;;1.50;1.00;;;20.20;98.20;;;;;;5045148;28;20478;-78
2021/10/03 11:42:47;;;;;;;1.50;0.97;;;20.20;98.20;;;;;;5053118;28;21062;-78
2021/10/03 11:45:16;;;;;;;1.50;0.90;;;20.20;98.20;;;;;;5054994;28;20465;-78
2021/10/03 11:47:45;;;;;;;1.50;0.90;;;20.20;98.20;;;;;;5056452;28;20609;-76
2021/10/03 11:50:15;;;;;;;1.50;1.00;;;20.20;98.20;;;;;;5053253;28;20836;-80
2021/10/03 11:52:44;;;;;;;1.57;1.10;;;20.20;98.20;;;;;;5065880;28;20603;-79
2021/10/03 11:55:15;;;;;;;1.50;1.00;;;20.20;98.20;;;;;;5040682;28;20503;-79
2021/10/03 11:57:44;;;;;;;1.50;0.90;;;20.20;98.20;;;;;;5043535;28;20885;-80
2021/10/03 12:00:20;;;;;;;1.50;0.90;;;20.20;98.20;;;;;;5040732;28;20502;-79
2021/10/03 12:02:49;;;;;;;1.50;1.00;;;20.20;98.20;;;;;;5035330;28;20591;-75
2021/10/03 12:05:20;;;;;;;1.50;0.90;;;20.10;98.20;;;;;;5040929;28;20466;-76
2021/10/03 12:07:59;;;;;;;1.50;1.10;;;20.10;98.20;;;;;;5037757;28;20942;-75
2021/10/03 12:10:35;;;;;;;1.50;0.90;;;20.00;98.20;;;;;;5034946;28;21307;-78
2021/10/03 12:13:11;;;;;;;1.60;1.23;;;20.00;98.20;;;;;;5042780;28;20571;-78
2021/10/03 12:15:50;;;;;;;1.50;0.90;;;20.00;98.20;;;;;;5034914;28;20844;-77
2021/10/03 12:18:36;;;;;;;1.50;0.90;;;20.00;98.20;;;;;;5031047;28;20485;-75
2021/10/03 12:21:05;;;;;;;2.27;1.20;;;19.90;98.20;;;;;;5021715;28;20561;-76
2021/10/03 12:23:43;;;;;;;1.50;0.90;;;20.00;98.20;;;;;;5046424;28;20478;-76
2021/10/03 12:26:13;;;;;;;1.50;1.00;;;20.00;98.20;;;;;;5025829;28;20481;-76
2021/10/03 12:29:00;;;;;;;1.50;0.90;;;20.00;98.20;;;;;;5049247;28;21144;-76
2021/10/03 12:31:41;;;;;;;1.50;0.90;;;20.00;98.20;;;;;;5026191;28;21246;-75
2021/10/03 12:34:29;;;;;;;1.50;0.90;;;20.10;98.20;;;;;;5049728;28;20557;-75
2021/10/03 12:37:05;;;;;;;1.50;0.90;;;20.10;98.20;;;;;;5037182;28;20506;-77
2021/10/03 12:39:35;;;;;;;1.50;0.90;;;20.10;98.20;;;;;;5038748;28;20516;-76
2021/10/03 12:42:08;;;;;;;1.50;0.90;;;20.20;98.20;;;;;;5030681;28;20476;-76
2021/10/03 12:44:35;;;;;;;1.50;0.90;;;20.20;98.20;;;;;;5041350;28;20454;-76
2021/10/03 12:47:04;;;;;;;1.50;1.00;;;20.30;98.20;;;;;;5040009;28;21117;-75
2021/10/03 12:49:31;;;;;;;1.50;0.90;;;20.30;98.20;;;;;;5047450;28;20817;-76
2021/10/03 12:51:58;;;;;;;1.50;0.90;;;20.40;98.20;;;;;;5042851;28;20499;-75
2021/10/03 12:54:25;;;;;;;1.50;0.90;;;20.40;98.10;;;;;;5045185;28;20851;-75
2021/10/03 12:56:56;;;;;;;1.50;0.90;;;20.50;98.20;;;;;;5032091;28;20517;-76
2021/10/03 12:59:24;;;;;;;1.50;0.97;;;20.50;97.80;;;;;;5050534;28;20587;-76
2021/10/03 13:01:51;;;;;;;1.50;0.90;;;20.60;97.80;;;;;;5034699;28;20885;-77
2021/10/03 13:04:18;;;;;;;1.50;0.90;;;20.60;97.60;;;;;;5056536;28;20482;-76